Date,TemperatureHighF,TemperatureAvgF,TemperatureLowF,DewpointHighF,DewpointAvgF,DewpointLowF,HumidityHigh,HumidityAvg,HumidityLow,PressureMaxIn,PressureMinIn,WindSpeedMaxMPH,WindSpeedAvgMPH,GustSpeedMaxMPH,PrecipitationSumIn
2013-5-1,75.5,69.6,65.1,69.7,66.3,63.2,97,90,81,30.06,29.97,18,3,18,0.00
2013-5-2,69.8,68.7,67.0,68.7,67.4,65.8,97,96,92,30.02,29.91,21,3,21,1.61
2013-5-3,70.7,68.0,65.3,66.9,65.4,60.2,97,92,73,29.92,29.83,20,5,20,0.87
2013-5-4,70.8,68.4,65.6,68.5,66.1,62.1,97,93,75,29.83,29.70,20,4,20,0.71
2013-5-5,78.3,68.7,60.5,69.0,59.3,51.0,97,75,40,29.87,29.70,17,2,17,0.13
2013-5-6,75.6,65.6,57.1,58.5,52.1,46.8,93,64,38,29.97,29.84,11,1,0,0.00
2013-5-7,78.5,67.3,54.7,62.2,56.7,51.6,91,70,49,30.01,29.89,18,1,18,0.00
2013-5-8,76.5,67.9,58.3,66.7,61.6,56.6,96,81,59,30.09,29.98,9,1,0,0.00
2013-5-9,84.4,72.2,62.6,70.8,64.8,57.3,96,79,45,30.12,30.06,11,1,0,0.00
2013-5-10,83.2,73.4,61.4,72.7,67.2,59.9,96,82,61,30.12,29.99,10,1,0,0.00
2013-5-11,90.3,75.6,67.7,73.3,68.8,66.0,96,81,51,30.04,29.90,13,1,13,0.24
2013-5-12,86.4,75.0,66.9,70.9,66.6,59.6,97,77,51,30.01,29.91,11,1,0,0.01
2013-5-13,79.3,68.7,57.6,60.8,53.1,41.8,92,61,28,30.14,29.98,14,1,14,0.00
2013-5-14,76.7,65.9,53.9,59.5,53.5,41.3,94,67,35,30.23,30.13,9,1,0,0.00
2013-5-15,82.7,70.2,55.9,64.1,58.8,49.3,96,70,36,30.22,30.07,11,1,0,0.00
2013-5-16,83.1,72.9,63.0,71.0,65.5,60.0,92,78,58,30.12,30.02,8,1,0,0.00
2013-5-24,70.5,70.0,69.2,67.4,67.1,66.5,91,90,89,30.10,30.09,0,0,0,0.00
2013-5-25,80.4,74.2,66.9,66.7,59.1,54.5,95,61,43,30.25,30.09,13,2,13,0.00
2013-5-26,81.8,72.9,59.4,65.4,57.8,51.5,94,62,38,30.23,30.14,9,1,0,0.00
2013-5-27,83.7,73.5,60.2,69.4,64.8,58.5,96,75,59,30.21,30.13,9,1,0,0.00
2013-5-28,83.8,77.8,72.6,70.3,67.8,64.7,82,72,62,30.19,30.11,12,2,12,0.00
2013-5-29,85.8,78.9,74.3,76.1,72.7,69.1,90,82,71,30.17,30.09,11,2,0,0.00
2013-5-30,85.3,79.6,74.4,76.6,74.1,70.3,93,84,72,30.18,30.09,11,2,0,0.01
2013-5-31,85.3,79.4,72.9,75.4,73.1,70.0,93,82,70,30.16,30.09,12,2,12,0.01